createdAt,value
2017-06-19T00:01:43.966Z,54.50
2017-06-19T00:04:10.608Z,55.50
2017-06-19T00:06:39.588Z,56.40
2017-06-19T00:09:07.576Z,56.50
2017-06-19T00:11:48.760Z,56.40
2017-06-19T00:14:30.130Z,56.80
2017-06-19T00:16:56.694Z,56.40
2017-06-19T00:19:23.331Z,55.80
2017-06-19T00:21:49.969Z,56.10
2017-06-19T00:24:16.520Z,56.00
2017-06-19T00:26:43.655Z,55.90
2017-06-19T00:29:10.196Z,55.40
2017-06-19T00:31:36.724Z,55.50
2017-06-19T00:34:03.786Z,55.40
2017-06-19T00:36:30.384Z,55.50
2017-06-19T00:38:57.575Z,55.60
2017-06-19T00:41:24.848Z,55.90
2017-06-19T00:43:52.714Z,56.00
2017-06-19T00:46:19.596Z,56.30
2017-06-19T00:48:46.236Z,56.30
2017-06-19T00:51:12.900Z,56.50
2017-06-19T00:53:39.539Z,56.60
2017-06-19T00:56:06.176Z,56.70
2017-06-19T00:58:32.815Z,56.70
2017-06-19T01:00:59.452Z,56.80
2017-06-19T01:03:26.090Z,56.90
2017-06-19T01:05:52.703Z,56.90
2017-06-19T01:08:19.344Z,57.10
2017-06-19T01:10:45.979Z,57.20
2017-06-19T01:13:12.642Z,57.30
2017-06-19T01:15:39.284Z,57.40
2017-06-19T01:18:06.738Z,57.70
2017-06-19T01:20:34.193Z,57.70
2017-06-19T01:23:00.832Z,57.70
2017-06-19T01:25:28.291Z,57.70
2017-06-19T01:27:54.899Z,57.80
2017-06-19T01:30:21.563Z,57.80
2017-06-19T01:32:48.176Z,57.90
2017-06-19T01:35:14.816Z,58.10
2017-06-19T01:37:42.059Z,58.20
2017-06-19T01:40:08.730Z,58.10
2017-06-19T01:42:35.368Z,58.30
2017-06-19T01:45:01.956Z,58.20
2017-06-19T01:47:28.472Z,58.80
2017-06-19T01:49:55.257Z,58.40
2017-06-19T01:52:23.317Z,58.40
2017-06-19T01:54:49.980Z,58.40
2017-06-19T01:57:17.105Z,58.50
2017-06-19T01:59:43.881Z,58.50
2017-06-19T02:02:10.492Z,58.40
2017-06-19T02:04:37.158Z,58.30
2017-06-19T02:07:03.795Z,58.20
2017-06-19T02:09:30.432Z,58.40
2017-06-19T02:11:57.048Z,58.40
2017-06-19T02:14:23.708Z,58.60
2017-06-19T02:16:50.347Z,58.70
2017-06-19T02:19:17.599Z,58.90
2017-06-19T02:21:44.236Z,58.80
2017-06-19T02:24:10.848Z,58.80
2017-06-19T02:26:38.235Z,58.80
2017-06-19T02:29:04.765Z,58.80
2017-06-19T02:31:31.349Z,58.80
2017-06-19T02:33:58.022Z,59.00
2017-06-19T02:36:27.021Z,59.10
2017-06-19T02:39:08.439Z,59.00
2017-06-19T02:41:50.133Z,59.20
2017-06-19T02:44:31.471Z,59.30
2017-06-19T02:47:13.002Z,59.30
2017-06-19T02:49:54.447Z,59.10
2017-06-19T02:52:35.686Z,58.70
2017-06-19T02:55:03.171Z,58.80
2017-06-19T02:57:45.706Z,58.30
2017-06-19T03:00:12.353Z,58.10
2017-06-19T03:02:38.985Z,57.90
2017-06-19T03:05:20.334Z,58.00
2017-06-19T03:08:01.770Z,57.80
2017-06-19T03:10:48.792Z,57.50
2017-06-19T03:13:15.511Z,57.50
2017-06-19T03:15:57.026Z,57.40
2017-06-19T03:18:38.973Z,58.40
2017-06-19T03:21:05.531Z,57.80
2017-06-19T03:23:32.169Z,57.80
2017-06-19T03:25:58.785Z,57.80
2017-06-19T03:28:26.059Z,57.80
2017-06-19T03:30:52.670Z,57.70
2017-06-19T03:33:20.156Z,57.90
2017-06-19T03:35:46.894Z,57.70
2017-06-19T03:38:14.332Z,58.00
2017-06-19T03:40:40.989Z,57.80
2017-06-19T03:43:07.524Z,58.10
2017-06-19T03:45:34.136Z,58.30
2017-06-19T03:48:00.778Z,58.30
2017-06-19T03:50:27.412Z,58.40
2017-06-19T03:52:54.052Z,58.70
2017-06-19T03:55:21.181Z,58.60
2017-06-19T03:57:47.942Z,58.70
2017-06-19T04:00:15.219Z,58.40
2017-06-19T04:02:42.289Z,58.20
2017-06-19T04:05:09.724Z,57.90
2017-06-19T04:07:36.362Z,57.70
2017-06-19T04:10:03.522Z,57.60
2017-06-19T04:12:30.748Z,57.60
2017-06-19T04:14:57.278Z,56.90
2017-06-19T04:17:23.940Z,56.80
2017-06-19T04:19:50.549Z,56.50
2017-06-19T04:22:32.136Z,56.40
2017-06-19T04:24:59.710Z,56.10
2017-06-19T04:27:26.463Z,56.60
2017-06-19T04:29:53.511Z,55.60
2017-06-19T04:32:20.251Z,55.40
2017-06-19T04:34:46.888Z,55.60
2017-06-19T04:37:14.132Z,55.40
2017-06-19T04:39:40.778Z,55.40
2017-06-19T04:42:07.416Z,55.20
2017-06-19T04:44:34.054Z,55.20
2017-06-19T04:47:00.692Z,54.90
2017-06-19T04:49:27.329Z,54.80
2017-06-19T04:51:53.939Z,54.70
2017-06-19T04:54:20.607Z,54.40
2017-06-19T04:56:47.244Z,53.80
2017-06-19T04:59:13.887Z,53.50
2017-06-19T05:01:41.313Z,53.10
2017-06-19T05:04:07.977Z,53.00
2017-06-19T05:06:34.593Z,52.60
2017-06-19T05:09:01.777Z,52.30
2017-06-19T05:11:28.507Z,52.10
2017-06-19T05:13:55.143Z,51.60
2017-06-19T05:16:22.399Z,52.00
2017-06-19T05:18:49.011Z,51.60
2017-06-19T05:21:15.676Z,51.00
2017-06-19T05:23:42.310Z,51.30
2017-06-19T05:26:08.920Z,51.50
2017-06-19T05:28:35.585Z,52.10
2017-06-19T05:31:02.088Z,51.40
2017-06-19T05:33:28.860Z,51.30
2017-06-19T05:35:56.318Z,50.30
2017-06-19T05:38:23.552Z,50.20
2017-06-19T05:40:50.209Z,51.20
2017-06-19T05:43:16.847Z,49.30
2017-06-19T05:45:43.456Z,50.00
2017-06-19T05:48:10.122Z,49.10
2017-06-19T05:50:36.761Z,48.70
2017-06-19T05:53:03.474Z,49.40
2017-06-19T05:55:30.139Z,49.70
2017-06-19T05:57:56.664Z,49.70
2017-06-19T06:00:23.237Z,48.70
2017-06-19T06:02:49.949Z,48.10
2017-06-19T06:05:17.512Z,48.40
2017-06-19T06:07:45.431Z,48.20
2017-06-19T06:10:12.192Z,48.20
2017-06-19T06:12:38.856Z,47.40
2017-06-19T06:15:05.493Z,48.00
2017-06-19T06:17:32.132Z,47.60
2017-06-19T06:19:59.384Z,46.70
2017-06-19T06:22:40.974Z,46.10
2017-06-19T06:25:07.820Z,46.50
2017-06-19T06:27:34.453Z,46.00
2017-06-19T06:30:02.327Z,45.90
2017-06-19T06:32:29.777Z,45.80
2017-06-19T06:34:56.277Z,44.90
2017-06-19T06:37:23.259Z,44.60
2017-06-19T06:39:50.717Z,43.40
2017-06-19T06:42:17.355Z,42.90
2017-06-19T06:44:43.991Z,43.90
2017-06-19T06:47:10.629Z,43.90
2017-06-19T06:49:38.403Z,44.70
2017-06-19T06:52:05.313Z,44.40
2017-06-19T06:54:31.977Z,44.30
2017-06-19T06:56:58.613Z,44.10
2017-06-19T06:59:25.111Z,43.50
2017-06-19T07:01:51.889Z,43.00
2017-06-19T07:04:18.499Z,41.90
2017-06-19T07:06:45.165Z,43.40
2017-06-19T07:09:12.355Z,42.10
2017-06-19T07:11:39.056Z,42.20
2017-06-19T07:14:05.694Z,41.30
2017-06-19T07:16:32.433Z,41.30
2017-06-19T07:18:59.073Z,40.60
2017-06-19T07:21:25.709Z,40.00
2017-06-19T07:23:52.347Z,40.60
2017-06-19T07:26:19.370Z,40.60
2017-06-19T07:28:46.033Z,38.90
2017-06-19T07:31:15.622Z,38.80
2017-06-19T07:33:44.547Z,38.90
2017-06-19T07:36:11.274Z,38.90
2017-06-19T07:38:38.396Z,37.80
2017-06-19T07:41:05.162Z,38.10
2017-06-19T07:43:31.800Z,35.60
2017-06-19T07:45:58.439Z,34.70
2017-06-19T07:48:24.931Z,36.40
2017-06-19T07:50:51.689Z,36.00
2017-06-19T07:53:18.556Z,34.00
2017-06-19T07:55:45.194Z,35.00
2017-06-19T07:58:12.450Z,33.40
2017-06-19T08:00:39.084Z,33.40
2017-06-19T08:03:05.723Z,31.90
2017-06-19T08:05:32.365Z,31.00
2017-06-19T08:07:58.998Z,31.80
2017-06-19T08:10:25.638Z,30.80
2017-06-19T08:12:52.274Z,31.20
2017-06-19T08:15:18.911Z,29.60
2017-06-19T08:17:45.653Z,31.40
2017-06-19T08:20:12.290Z,33.00
2017-06-19T08:22:39.133Z,31.90
2017-06-19T08:25:20.528Z,32.90
2017-06-19T08:27:47.974Z,33.40
2017-06-19T08:30:14.614Z,33.40
2017-06-19T08:32:41.250Z,31.80
2017-06-19T08:35:07.888Z,31.20
2017-06-19T08:37:34.526Z,32.60
2017-06-19T08:40:01.164Z,32.70
2017-06-19T08:42:27.801Z,33.10
2017-06-19T08:44:54.412Z,32.30
2017-06-19T08:47:21.076Z,31.50
2017-06-19T08:49:47.690Z,32.10
2017-06-19T08:52:14.908Z,32.10
2017-06-19T08:54:41.612Z,31.50
2017-06-19T08:57:09.063Z,32.30
2017-06-19T08:59:35.677Z,32.10
2017-06-19T09:02:02.339Z,30.20
2017-06-19T09:04:29.581Z,28.80
2017-06-19T09:06:56.231Z,27.80
2017-06-19T09:09:22.872Z,29.30
2017-06-19T09:11:49.713Z,28.60
2017-06-19T09:14:16.320Z,28.10
2017-06-19T09:16:42.958Z,28.00
2017-06-19T09:19:10.239Z,29.60
2017-06-19T09:21:36.878Z,28.00
2017-06-19T09:24:03.516Z,27.60
2017-06-19T09:26:30.335Z,27.50
2017-06-19T09:28:56.995Z,28.60
2017-06-19T09:31:23.632Z,28.30
2017-06-19T09:33:50.270Z,28.90
2017-06-19T09:36:18.188Z,29.00
2017-06-19T09:38:44.979Z,28.20
2017-06-19T09:41:11.617Z,27.70
2017-06-19T09:43:38.459Z,26.30
2017-06-19T09:46:05.097Z,26.70
2017-06-19T09:48:31.747Z,25.60
2017-06-19T09:50:59.810Z,26.80
2017-06-19T09:53:26.551Z,26.80
2017-06-19T09:55:53.164Z,25.80
2017-06-19T09:58:19.826Z,26.90
2017-06-19T10:00:46.463Z,25.70
2017-06-19T10:03:13.923Z,23.60
2017-06-19T10:05:40.537Z,24.10
2017-06-19T10:08:07.196Z,22.30
2017-06-19T10:10:33.837Z,23.00
2017-06-19T10:13:00.473Z,22.20
2017-06-19T10:15:27.535Z,22.00
2017-06-19T10:17:54.340Z,22.30
2017-06-19T10:20:20.975Z,22.40
2017-06-19T10:22:48.356Z,22.10
2017-06-19T10:25:14.993Z,22.60
2017-06-19T10:27:41.632Z,21.70
2017-06-19T10:30:08.698Z,21.40
2017-06-19T10:32:36.134Z,20.30
2017-06-19T10:35:02.775Z,20.40
2017-06-19T10:37:29.412Z,21.10
2017-06-19T10:39:56.845Z,20.00
2017-06-19T10:42:23.504Z,19.60
2017-06-19T10:44:50.144Z,20.00
2017-06-19T10:47:16.756Z,21.00
2017-06-19T10:49:44.033Z,21.30
2017-06-19T10:52:10.616Z,22.40
2017-06-19T10:54:38.129Z,25.50
2017-06-19T10:57:04.765Z,25.90
2017-06-19T10:59:31.404Z,26.70
2017-06-19T11:01:58.041Z,26.40
2017-06-19T11:04:24.665Z,27.20
2017-06-19T11:06:51.316Z,28.00
2017-06-19T11:09:17.955Z,28.80
2017-06-19T11:11:44.592Z,28.90
2017-06-19T11:14:11.438Z,29.30
2017-06-19T11:16:38.057Z,29.10
2017-06-19T11:19:04.916Z,29.60
2017-06-19T11:21:31.555Z,28.90
2017-06-19T11:23:58.193Z,29.60
2017-06-19T11:26:25.212Z,28.80
2017-06-19T11:28:51.857Z,28.80
2017-06-19T11:31:18.517Z,29.10
2017-06-19T11:33:45.036Z,30.10
2017-06-19T11:36:11.744Z,29.20
2017-06-19T11:38:38.429Z,30.90
2017-06-19T11:41:05.046Z,30.20
2017-06-19T11:43:31.685Z,30.40
2017-06-19T11:45:58.320Z,30.60
2017-06-19T11:48:26.188Z,30.10
2017-06-19T11:50:53.382Z,30.60
2017-06-19T11:53:20.102Z,30.70
2017-06-19T11:55:47.352Z,30.70
2017-06-19T11:58:13.989Z,30.30
2017-06-19T12:00:40.620Z,30.80
2017-06-19T12:03:07.266Z,30.70
2017-06-19T12:05:33.880Z,30.70
2017-06-19T12:08:00.516Z,31.00
2017-06-19T12:10:27.180Z,31.10
2017-06-19T12:12:53.817Z,31.20
2017-06-19T12:15:20.456Z,31.40
2017-06-19T12:17:47.040Z,30.50
2017-06-19T12:20:13.732Z,31.20
2017-06-19T12:22:40.369Z,31.20
2017-06-19T12:25:06.981Z,31.40
2017-06-19T12:27:33.529Z,31.40
2017-06-19T12:30:00.284Z,31.80
2017-06-19T12:32:26.897Z,31.50
2017-06-19T12:34:53.560Z,32.60
2017-06-19T12:37:20.197Z,31.90
2017-06-19T12:39:47.341Z,32.20
2017-06-19T12:42:14.060Z,32.80
2017-06-19T12:44:40.697Z,32.30
2017-06-19T12:47:07.823Z,32.70
2017-06-19T12:49:34.601Z,32.20
2017-06-19T12:52:01.224Z,32.00
2017-06-19T12:54:27.895Z,33.00
2017-06-19T12:56:54.709Z,32.40
2017-06-19T12:59:22.094Z,31.60
2017-06-19T13:01:48.909Z,32.20
2017-06-19T13:04:15.569Z,31.90
2017-06-19T13:06:42.181Z,32.80
2017-06-19T13:09:08.846Z,31.80
2017-06-19T13:11:35.483Z,32.10
2017-06-19T13:14:02.122Z,31.80
2017-06-19T13:16:29.485Z,31.80
2017-06-19T13:18:56.217Z,31.90
2017-06-19T13:21:23.469Z,31.60
2017-06-19T13:23:50.925Z,31.20
2017-06-19T13:26:18.521Z,31.10
2017-06-19T13:28:45.328Z,31.30
2017-06-19T13:31:11.965Z,30.10
2017-06-19T13:33:39.460Z,30.70
2017-06-19T13:36:06.265Z,30.30
2017-06-19T13:38:32.904Z,31.90
2017-06-19T13:40:59.519Z,31.00
2017-06-19T13:43:26.182Z,31.50
2017-06-19T13:45:52.817Z,31.10
2017-06-19T13:48:19.428Z,30.90
2017-06-19T13:50:46.074Z,31.30
2017-06-19T13:53:12.732Z,31.70
2017-06-19T13:55:39.321Z,31.30
2017-06-19T13:58:06.578Z,31.00
2017-06-19T14:00:33.236Z,31.30
2017-06-19T14:02:59.899Z,31.30
2017-06-19T14:05:27.011Z,31.60
2017-06-19T14:07:53.788Z,31.70
2017-06-19T14:10:20.427Z,31.20
2017-06-19T14:12:47.063Z,31.30
2017-06-19T14:15:14.513Z,32.00
2017-06-19T14:17:41.137Z,32.00
2017-06-19T14:20:07.799Z,31.90
2017-06-19T14:22:34.413Z,32.30
2017-06-19T14:25:01.073Z,32.40
2017-06-19T14:27:27.673Z,32.20
2017-06-19T14:29:54.320Z,31.90
2017-06-19T14:32:20.985Z,31.80
2017-06-19T14:34:48.190Z,32.20
2017-06-19T14:37:14.879Z,31.30
2017-06-19T14:39:41.929Z,30.90
2017-06-19T14:42:09.147Z,30.50
2017-06-19T14:44:35.815Z,30.50
2017-06-19T14:47:02.429Z,30.70
2017-06-19T14:49:29.091Z,30.70
2017-06-19T14:51:55.728Z,31.10
2017-06-19T14:54:22.365Z,31.10
2017-06-19T14:56:49.490Z,31.80
2017-06-19T14:59:16.232Z,31.30
2017-06-19T15:01:42.869Z,31.30
2017-06-19T15:04:09.484Z,31.30
2017-06-19T15:06:36.789Z,31.30
2017-06-19T15:09:03.628Z,31.40
2017-06-19T15:11:30.728Z,31.60
2017-06-19T15:13:57.700Z,31.60
2017-06-19T15:16:24.769Z,30.40
2017-06-19T15:18:51.408Z,30.50
2017-06-19T15:21:23.984Z,30.50
2017-06-19T15:23:52.503Z,30.80
2017-06-19T15:26:19.314Z,30.60
2017-06-19T15:28:46.767Z,30.10
2017-06-19T15:31:13.403Z,30.40
2017-06-19T15:33:41.325Z,31.00
2017-06-19T15:36:08.119Z,30.30
2017-06-19T15:38:35.549Z,30.20
2017-06-19T15:41:02.210Z,30.20
2017-06-19T15:43:29.403Z,30.80
2017-06-19T15:45:56.048Z,31.00
2017-06-19T15:48:22.737Z,31.50
2017-06-19T15:50:49.375Z,31.40
2017-06-19T15:53:16.012Z,31.30
2017-06-19T15:55:42.651Z,31.10
2017-06-19T15:58:09.265Z,31.60
2017-06-19T16:00:35.927Z,31.90
2017-06-19T16:03:02.564Z,30.90
2017-06-19T16:05:29.202Z,30.60
2017-06-19T16:07:56.660Z,30.70
2017-06-19T16:10:24.117Z,31.60
2017-06-19T16:12:51.204Z,31.30
2017-06-19T16:15:17.982Z,31.30
2017-06-19T16:17:44.645Z,32.60
2017-06-19T16:20:11.672Z,32.30
2017-06-19T16:22:38.331Z,31.80
2017-06-19T16:25:05.174Z,31.50
2017-06-19T16:27:31.814Z,31.40
2017-06-19T16:29:59.713Z,32.40
2017-06-19T16:32:26.392Z,31.80
2017-06-19T16:34:53.057Z,32.10
2017-06-19T16:37:19.694Z,31.40
2017-06-19T16:39:46.331Z,31.60
2017-06-19T16:42:12.969Z,30.90
2017-06-19T16:44:40.222Z,31.40
2017-06-19T16:47:06.836Z,32.00
2017-06-19T16:49:34.118Z,31.60
2017-06-19T16:52:01.569Z,32.20
2017-06-19T16:54:28.181Z,32.20
2017-06-19T16:56:55.050Z,31.60
2017-06-19T16:59:21.687Z,32.00
2017-06-19T17:01:48.428Z,31.70
2017-06-19T17:04:16.311Z,31.60
2017-06-19T17:06:42.904Z,31.80
2017-06-19T17:09:10.596Z,31.80
2017-06-19T17:11:37.821Z,31.90
2017-06-19T17:14:05.464Z,32.30
2017-06-19T17:16:32.120Z,32.10
2017-06-19T17:18:58.757Z,32.30
2017-06-19T17:21:25.428Z,32.20
2017-06-19T17:23:52.062Z,32.10
2017-06-19T17:26:19.334Z,32.00
2017-06-19T17:28:46.745Z,32.40
2017-06-19T17:31:13.380Z,32.40
2017-06-19T17:33:40.047Z,32.60
2017-06-19T17:36:07.300Z,32.50
2017-06-19T17:38:33.935Z,32.20
2017-06-19T17:41:00.550Z,32.30
2017-06-19T17:43:27.184Z,31.80
2017-06-19T17:45:53.825Z,32.50
2017-06-19T17:48:20.460Z,32.10
2017-06-19T17:50:47.125Z,31.80
2017-06-19T17:53:13.736Z,33.50
2017-06-19T17:55:40.403Z,33.00
2017-06-19T17:58:07.040Z,32.80
2017-06-19T18:00:33.677Z,33.10
2017-06-19T18:03:01.339Z,32.90
2017-06-19T18:05:27.978Z,32.80
2017-06-19T18:07:54.587Z,33.50
2017-06-19T18:10:21.202Z,33.60
2017-06-19T18:12:47.895Z,34.30
2017-06-19T18:15:14.532Z,33.70
2017-06-19T18:17:41.704Z,34.10
2017-06-19T18:20:09.111Z,33.60
2017-06-19T18:22:39.243Z,33.60
2017-06-19T18:25:06.697Z,33.90
2017-06-19T18:27:35.317Z,33.60
2017-06-19T18:30:02.959Z,34.10
2017-06-19T18:32:29.596Z,34.30
2017-06-19T18:34:56.336Z,33.90
2017-06-19T18:37:23.659Z,33.60
2017-06-19T18:39:50.534Z,34.00
2017-06-19T18:42:17.479Z,34.80
2017-06-19T18:44:44.224Z,35.30
2017-06-19T18:47:11.189Z,35.10
2017-06-19T18:49:39.445Z,35.10
2017-06-19T18:52:06.059Z,36.80
2017-06-19T18:54:32.692Z,36.60
2017-06-19T18:56:59.793Z,36.10
2017-06-19T18:59:27.507Z,37.00
2017-06-19T19:01:55.322Z,37.40
2017-06-19T19:04:22.767Z,37.80
2017-06-19T19:06:50.325Z,38.10
2017-06-19T19:09:17.537Z,38.50
2017-06-19T19:11:44.306Z,39.00
2017-06-19T19:14:11.319Z,40.10
2017-06-19T19:16:38.505Z,41.00
2017-06-19T19:19:07.224Z,40.50
2017-06-19T19:21:34.481Z,41.30
2017-06-19T19:24:02.409Z,42.30
2017-06-19T19:26:32.803Z,42.00
2017-06-19T19:29:00.573Z,42.20
2017-06-19T19:31:27.543Z,42.30
2017-06-19T19:33:55.843Z,42.40
2017-06-19T19:36:24.173Z,42.00
2017-06-19T19:38:52.511Z,42.30
2017-06-19T19:41:21.161Z,42.30
2017-06-19T19:43:47.800Z,42.70
2017-06-19T19:46:15.358Z,42.90
2017-06-19T19:48:41.996Z,42.50
2017-06-19T19:51:09.134Z,43.00
2017-06-19T19:53:38.254Z,43.20
2017-06-19T19:56:05.368Z,43.50
2017-06-19T19:58:34.216Z,43.80
2017-06-19T20:01:01.540Z,43.90
2017-06-19T20:03:28.378Z,44.40
2017-06-19T20:05:55.016Z,44.40
2017-06-19T20:08:21.654Z,44.70
2017-06-19T20:10:48.294Z,44.80
2017-06-19T20:13:15.340Z,45.10
2017-06-19T20:15:42.162Z,45.10
2017-06-19T20:18:08.820Z,45.50
2017-06-19T20:20:35.458Z,45.40
2017-06-19T20:23:03.019Z,45.10
2017-06-19T20:25:29.657Z,45.50
2017-06-19T20:27:56.909Z,45.50
2017-06-19T20:30:25.088Z,45.50
2017-06-19T20:32:51.924Z,45.30
2017-06-19T20:35:18.562Z,45.50
2017-06-19T20:37:45.176Z,45.50
2017-06-19T20:40:11.818Z,45.80
2017-06-19T20:42:38.453Z,46.10
2017-06-19T20:45:05.012Z,45.90
2017-06-19T20:47:31.651Z,45.80
2017-06-19T20:49:58.839Z,46.30
2017-06-19T20:52:25.512Z,46.00
2017-06-19T20:55:07.129Z,45.90
2017-06-19T20:57:33.767Z,45.80
2017-06-19T21:00:01.022Z,45.90
2017-06-19T21:02:27.656Z,45.90
2017-06-19T21:04:54.295Z,45.80
2017-06-19T21:07:20.933Z,46.00
2017-06-19T21:09:50.897Z,46.00
2017-06-19T21:12:18.685Z,46.30
2017-06-19T21:14:45.879Z,46.50
2017-06-19T21:17:12.605Z,46.20
2017-06-19T21:19:39.246Z,46.00
2017-06-19T21:22:05.886Z,45.90
2017-06-19T21:24:32.953Z,46.20
2017-06-19T21:27:00.384Z,46.50
2017-06-19T21:29:28.945Z,46.40
2017-06-19T21:31:55.606Z,46.80
2017-06-19T21:34:22.216Z,46.70
2017-06-19T21:36:48.861Z,46.70
2017-06-19T21:39:15.519Z,46.50
2017-06-19T21:41:42.158Z,46.40
2017-06-19T21:44:08.766Z,46.40
2017-06-19T21:46:35.304Z,46.30
2017-06-19T21:49:02.571Z,46.50
2017-06-19T21:51:29.324Z,46.60
2017-06-19T21:53:55.961Z,46.80
2017-06-19T21:56:23.147Z,46.70
2017-06-19T21:58:51.071Z,46.90
2017-06-19T22:01:17.820Z,46.60
2017-06-19T22:03:44.432Z,46.40
2017-06-19T22:06:11.096Z,46.60
2017-06-19T22:08:37.736Z,46.60
2017-06-19T22:11:04.374Z,46.40
2017-06-19T22:13:31.460Z,46.30
2017-06-19T22:15:59.083Z,46.50
2017-06-19T22:18:25.697Z,46.40
2017-06-19T22:20:58.296Z,47.20
2017-06-19T22:23:25.754Z,46.40
2017-06-19T22:25:53.531Z,46.30
2017-06-19T22:28:20.260Z,46.40
2017-06-19T22:30:46.896Z,46.60
2017-06-19T22:33:13.534Z,47.50
2017-06-19T22:35:40.148Z,47.30
2017-06-19T22:38:06.789Z,48.70
2017-06-19T22:40:33.447Z,49.90
2017-06-19T22:43:00.087Z,49.80
2017-06-19T22:45:26.700Z,50.00
2017-06-19T22:47:53.361Z,50.20
2017-06-19T22:50:20.001Z,49.70
2017-06-19T22:52:47.459Z,50.80
2017-06-19T22:55:14.170Z,51.10
2017-06-19T22:57:41.450Z,52.30
2017-06-19T23:00:08.060Z,53.00
2017-06-19T23:02:34.725Z,52.80
2017-06-19T23:05:02.609Z,53.20
2017-06-19T23:07:30.049Z,53.30
2017-06-19T23:10:11.639Z,53.20
2017-06-19T23:12:38.249Z,53.60
2017-06-19T23:15:04.883Z,53.70
2017-06-19T23:17:31.524Z,53.60
2017-06-19T23:19:58.805Z,53.50
2017-06-19T23:22:25.441Z,53.60
2017-06-19T23:24:52.796Z,53.80
2017-06-19T23:27:19.433Z,53.90
2017-06-19T23:29:46.072Z,54.00
2017-06-19T23:32:12.640Z,54.30
2017-06-19T23:34:40.264Z,54.40
2017-06-19T23:37:07.407Z,54.70
2017-06-19T23:39:34.033Z,54.60
2017-06-19T23:42:00.696Z,54.90
2017-06-19T23:44:27.536Z,55.10
2017-06-19T23:46:54.995Z,55.00
2017-06-19T23:49:21.632Z,54.40
2017-06-19T23:51:48.777Z,53.70
2017-06-19T23:54:15.496Z,54.20
2017-06-19T23:56:42.160Z,54.30
2017-06-19T23:59:08.772Z,54.60
